Time;durP1;ratioP1;P1;durP2;ratioP2;P2;SDS_P1;SDS_P2;PMS_P1;PMS_P2;Temp;Humidity;BMP_temperature;BMP_pressure;BME280_temperature;BME280_humidity;BME280_pressure;Samples;Min_cycle;Max_cycle;Signal;HPM_P1;HPM_P2
2023/06/05 00:01:41;;;;;;;;;;;;;;;;;;5063291;28;19924;-60
2023/06/05 00:04:07;;;;;;;;;;;;;;;;;;5066253;28;19916;-58
2023/06/05 00:06:33;;;;;;;;;;;;;;;;;;5063887;28;20038;-58
2023/06/05 00:08:59;;;;;;;;;;;;;;;;;;5063760;28;20325;-58
2023/06/05 00:11:26;;;;;;;;;;;;;;;;;;5064272;28;19924;-58
2023/06/05 00:13:52;;;;;;;;;;;;;;;;;;5065909;28;19916;-58
2023/06/05 00:16:18;;;;;;;;;;;;;;;;;;5062802;28;20415;-59
2023/06/05 00:18:45;;;;;;;;;;;;;;;;;;5064330;28;20073;-58
2023/06/05 00:21:11;;;;;;;;;;;;;;;;;;5066766;28;20332;-59
2023/06/05 00:23:37;;;;;;;;;;;;;;;;;;5065048;28;19963;-58
2023/06/05 00:26:03;;;;;;;;;;;;;;;;;;5061170;28;20244;-59
2023/06/05 00:28:29;;;;;;;;;;;;;;;;;;5064407;28;20013;-58
2023/06/05 00:30:55;;;;;;;;;;;;;;;;;;5063733;28;20372;-59
2023/06/05 00:33:21;;;;;;;;;;;;;;;;;;5063017;28;19959;-58
2023/06/05 00:35:47;;;;;;;;;;;;;;;;;;5065508;28;19948;-59
2023/06/05 00:38:13;;;;;;;;;;;;;;;;;;5067000;28;19916;-58
2023/06/05 00:40:39;;;;;;;;;;;;;;;;;;5062208;28;20078;-59
2023/06/05 00:43:08;;;;;;;;;;;;;;;;;;5063598;28;20382;-58
2023/06/05 00:45:34;;;;;;;;;;;;;;;;;;5063916;28;19971;-58
2023/06/05 00:48:00;;;;;;;;;;;;;;;;;;5060283;28;19964;-58
2023/06/05 00:50:26;;;;;;;;;;;;;;;;;;5065025;28;19936;-59
2023/06/05 00:52:52;;;;;;;;;;;;;;;;;;5065052;28;20005;-58
2023/06/05 00:55:18;;;;;;;;;;;;;;;;;;5062720;28;19956;-58
2023/06/05 00:57:44;;;;;;;;;;;;;;;;;;5064529;28;19952;-59
2023/06/05 01:00:12;;;;;;;;;;;;;;;;;;5064628;28;20332;-59
2023/06/05 01:02:38;;;;;;;;;;;;;;;;;;5066395;28;19979;-58
2023/06/05 01:05:04;;;;;;;;;;;;;;;;;;5063719;28;19967;-58
2023/06/05 01:07:32;;;;;;;;;;;;;;;;;;5065649;28;19920;-59
2023/06/05 01:09:58;;;;;;;;;;;;;;;;;;5064368;28;19917;-59
2023/06/05 01:12:24;;;;;;;;;;;;;;;;;;5061794;28;20029;-60
2023/06/05 01:14:51;;;;;;;;;;;;;;;;;;5064343;28;19920;-58
2023/06/05 01:17:24;;;;;;;;;;;;;;;;;;5062557;28;19994;-59
2023/06/05 01:19:50;;;;;;;;;;;;;;;;;;5063964;28;19917;-58
2023/06/05 01:22:16;;;;;;;;;;;;;;;;;;5061781;28;20489;-58
2023/06/05 01:24:42;;;;;;;;;;;;;;;;;;5061217;28;20391;-58
2023/06/05 01:27:08;;;;;;;;;;;;;;;;;;5065475;28;20000;-58
2023/06/05 01:29:34;;;;;;;;;;;;;;;;;;5066610;28;19998;-59
2023/06/05 01:32:00;;;;;;;;;;;;;;;;;;5060752;28;20123;-58
2023/06/05 01:34:26;;;;;;;;;;;;;;;;;;5059167;28;20007;-59
2023/06/05 01:36:52;;;;;;;;;;;;;;;;;;5065883;28;19922;-58
2023/06/05 01:39:18;;;;;;;;;;;;;;;;;;5066367;28;20010;-57
2023/06/05 01:41:44;;;;;;;;;;;;;;;;;;5063676;28;19916;-58
2023/06/05 01:44:12;;;;;;;;;;;;;;;;;;5066764;28;20051;-58
2023/06/05 01:46:38;;;;;;;;;;;;;;;;;;5069057;28;19920;-58
2023/06/05 01:49:05;;;;;;;;;;;;;;;;;;5066296;28;20041;-59
2023/06/05 01:51:31;;;;;;;;;;;;;;;;;;5061448;28;19922;-59
2023/06/05 01:53:57;;;;;;;;;;;;;;;;;;5067442;28;20016;-59
2023/06/05 01:56:23;;;;;;;;;;;;;;;;;;5067513;28;20309;-58
2023/06/05 01:58:49;;;;;;;;;;;;;;;;;;5068279;28;19959;-59
2023/06/05 02:01:16;;;;;;;;;;;;;;;;;;5066556;28;20453;-58
2023/06/05 02:03:47;;;;;;;;;;;;;;;;;;5066787;28;20347;-58
2023/06/05 02:06:14;;;;;;;;;;;;;;;;;;5067678;28;19917;-59
2023/06/05 02:08:40;;;;;;;;;;;;;;;;;;5067062;28;20018;-59
2023/06/05 02:11:10;;;;;;;;;;;;;;;;;;5066064;28;19952;-58
2023/06/05 02:13:36;;;;;;;;;;;;;;;;;;5067631;28;20015;-58
2023/06/05 02:16:02;;;;;;;;;;;;;;;;;;5067890;28;20436;-58
2023/06/05 02:18:29;;;;;;;;;;;;;;;;;;5068187;28;19920;-59
2023/06/05 02:20:56;;;;;;;;;;;;;;;;;;5066583;28;19917;-59
2023/06/05 02:23:22;;;;;;;;;;;;;;;;;;5066054;28;19960;-58
2023/06/05 02:25:48;;;;;;;;;;;;;;;;;;5063845;28;19916;-59
2023/06/05 02:28:13;;;;;;;;;;;;;;;;;;5066022;28;20008;-58
2023/06/05 02:30:44;;;;;;;;;;;;;;;;;;5068196;28;19967;-58
2023/06/05 02:33:10;;;;;;;;;;;;;;;;;;5066183;28;19970;-58
2023/06/05 02:35:36;;;;;;;;;;;;;;;;;;5067308;28;19917;-59
2023/06/05 02:38:04;;;;;;;;;;;;;;;;;;5065246;28;19927;-59
2023/06/05 02:40:30;;;;;;;;;;;;;;;;;;5064205;28;19928;-60
2023/06/05 02:42:56;;;;;;;;;;;;;;;;;;5064617;28;20028;-58
2023/06/05 02:45:22;;;;;;;;;;;;;;;;;;5066319;28;20030;-59
2023/06/05 02:47:48;;;;;;;;;;;;;;;;;;5068090;28;20078;-58
2023/06/05 02:50:14;;;;;;;;;;;;;;;;;;5067208;28;20305;-58
2023/06/05 02:52:40;;;;;;;;;;;;;;;;;;5066834;28;20335;-59
2023/06/05 02:55:07;;;;;;;;;;;;;;;;;;5065233;28;19917;-59
2023/06/05 02:57:35;;;;;;;;;;;;;;;;;;5066341;28;20325;-59
2023/06/05 03:00:07;;;;;;;;;;;;;;;;;;5066078;28;20214;-59
2023/06/05 03:02:36;;;;;;;;;;;;;;;;;;5066288;28;20006;-59
2023/06/05 03:05:02;;;;;;;;;;;;;;;;;;5065873;28;19966;-59
2023/06/05 03:07:27;;;;;;;;;;;;;;;;;;5066725;28;19952;-60
2023/06/05 03:09:53;;;;;;;;;;;;;;;;;;5066104;28;19951;-60
2023/06/05 03:12:19;;;;;;;;;;;;;;;;;;5064538;28;19963;-60
2023/06/05 03:14:45;;;;;;;;;;;;;;;;;;5065006;28;19947;-60
2023/06/05 03:17:11;;;;;;;;;;;;;;;;;;5066729;28;19995;-60
2023/06/05 03:19:37;;;;;;;;;;;;;;;;;;5048354;28;20352;-60
2023/06/05 03:22:05;;;;;;;;;;;;;;;;;;5064756;28;20376;-60
2023/06/05 03:24:31;;;;;;;;;;;;;;;;;;5065652;28;20380;-60
2023/06/05 03:26:57;;;;;;;;;;;;;;;;;;5066294;28;20007;-60
2023/06/05 03:29:23;;;;;;;;;;;;;;;;;;5066052;28;20363;-60
2023/06/05 03:31:48;;;;;;;;;;;;;;;;;;5066883;28;20472;-60
2023/06/05 03:34:15;;;;;;;;;;;;;;;;;;5067746;28;19982;-60
2023/06/05 03:36:41;;;;;;;;;;;;;;;;;;5047174;28;19923;-60
2023/06/05 03:39:07;;;;;;;;;;;;;;;;;;5063469;28;20006;-60
2023/06/05 03:41:33;;;;;;;;;;;;;;;;;;5064349;28;19928;-60
2023/06/05 03:43:59;;;;;;;;;;;;;;;;;;5065128;28;20344;-60
2023/06/05 03:46:25;;;;;;;;;;;;;;;;;;5065429;28;19916;-60
2023/06/05 03:48:58;;;;;;;;;;;;;;;;;;5065879;28;19916;-60
2023/06/05 03:51:24;;;;;;;;;;;;;;;;;;5065254;28;19912;-60
2023/06/05 03:53:54;;;;;;;;;;;;;;;;;;5066632;28;19923;-60
2023/06/05 03:56:21;;;;;;;;;;;;;;;;;;5062036;28;20299;-60
2023/06/05 03:58:48;;;;;;;;;;;;;;;;;;5064157;28;20329;-59
2023/06/05 04:01:14;;;;;;;;;;;;;;;;;;5063533;28;20006;-60
2023/06/05 04:03:40;;;;;;;;;;;;;;;;;;5067463;28;20380;-60
2023/06/05 04:06:06;;;;;;;;;;;;;;;;;;5047792;28;19917;-61
2023/06/05 04:08:32;;;;;;;;;;;;;;;;;;5067618;28;20391;-60
2023/06/05 04:10:58;;;;;;;;;;;;;;;;;;5064530;28;19955;-60
2023/06/05 04:13:24;;;;;;;;;;;;;;;;;;5062750;28;20313;-59
2023/06/05 04:15:50;;;;;;;;;;;;;;;;;;5042126;28;19912;-60
2023/06/05 04:18:16;;;;;;;;;;;;;;;;;;5065970;28;20339;-60
2023/06/05 04:20:42;;;;;;;;;;;;;;;;;;5066901;28;19938;-60
2023/06/05 04:23:08;;;;;;;;;;;;;;;;;;5066047;28;20372;-60
2023/06/05 04:25:34;;;;;;;;;;;;;;;;;;5066545;28;20305;-60
2023/06/05 04:28:00;;;;;;;;;;;;;;;;;;5065138;28;19998;-60
2023/06/05 04:30:29;;;;;;;;;;;;;;;;;;5065828;28;19928;-60
2023/06/05 04:32:55;;;;;;;;;;;;;;;;;;5065360;28;19960;-60
2023/06/05 04:35:22;;;;;;;;;;;;;;;;;;5065270;28;19942;-61
2023/06/05 04:37:48;;;;;;;;;;;;;;;;;;5066529;28;20391;-61
2023/06/05 04:40:14;;;;;;;;;;;;;;;;;;5047313;28;20024;-61
2023/06/05 04:42:40;;;;;;;;;;;;;;;;;;5028662;28;20380;-60
2023/06/05 04:45:07;;;;;;;;;;;;;;;;;;5046649;28;19921;-61
2023/06/05 04:47:33;;;;;;;;;;;;;;;;;;5049738;28;19931;-61
2023/06/05 04:49:59;;;;;;;;;;;;;;;;;;5043058;28;19935;-61
2023/06/05 04:52:26;;;;;;;;;;;;;;;;;;5047426;28;19963;-61
2023/06/05 04:54:52;;;;;;;;;;;;;;;;;;5059301;28;19920;-60
2023/06/05 04:57:18;;;;;;;;;;;;;;;;;;5049876;28;19917;-60
2023/06/05 04:59:44;;;;;;;;;;;;;;;;;;5049094;28;19944;-61
2023/06/05 05:02:10;;;;;;;;;;;;;;;;;;5036502;28;20007;-61
2023/06/05 05:04:36;;;;;;;;;;;;;;;;;;5042602;28;19956;-60
2023/06/05 05:07:02;;;;;;;;;;;;;;;;;;5046569;28;20014;-61
2023/06/05 05:09:28;;;;;;;;;;;;;;;;;;5047947;28;20261;-60
2023/06/05 05:11:54;;;;;;;;;;;;;;;;;;5050647;28;20303;-60
2023/06/05 05:14:20;;;;;;;;;;;;;;;;;;5048109;28;19952;-59
2023/06/05 05:16:47;;;;;;;;;;;;;;;;;;5050774;28;19912;-60
2023/06/05 05:19:13;;;;;;;;;;;;;;;;;;5051189;28;19921;-60
2023/06/05 05:21:40;;;;;;;;;;;;;;;;;;5053248;28;19972;-59
2023/06/05 05:24:06;;;;;;;;;;;;;;;;;;5041711;28;19924;-59
2023/06/05 05:26:32;;;;;;;;;;;;;;;;;;5056274;28;20336;-58
2023/06/05 05:28:58;;;;;;;;;;;;;;;;;;5046062;28;19917;-60
2023/06/05 05:31:25;;;;;;;;;;;;;;;;;;5044604;28;19924;-59
2023/06/05 05:33:51;;;;;;;;;;;;;;;;;;5043449;28;19925;-59
2023/06/05 05:36:18;;;;;;;;;;;;;;;;;;5046440;28;19947;-60
2023/06/05 05:38:44;;;;;;;;;;;;;;;;;;5050653;28;19921;-60
2023/06/05 05:41:10;;;;;;;;;;;;;;;;;;5065671;28;19924;-59
2023/06/05 05:43:36;;;;;;;;;;;;;;;;;;5050992;28;20459;-60
2023/06/05 05:46:03;;;;;;;;;;;;;;;;;;5068771;28;19921;-60
2023/06/05 05:48:29;;;;;;;;;;;;;;;;;;5069608;28;19962;-60
2023/06/05 05:50:55;;;;;;;;;;;;;;;;;;5068985;28;19960;-60
2023/06/05 05:53:22;;;;;;;;;;;;;;;;;;5062903;28;20577;-59
2023/06/05 05:55:48;;;;;;;;;;;;;;;;;;5062164;28;20071;-59
2023/06/05 05:58:15;;;;;;;;;;;;;;;;;;5064693;28;20003;-59
2023/06/05 06:00:41;;;;;;;;;;;;;;;;;;5064331;28;19978;-58
2023/06/05 06:03:07;;;;;;;;;;;;;;;;;;5068745;28;19952;-58
2023/06/05 06:05:33;;;;;;;;;;;;;;;;;;5067971;28;19920;-58
2023/06/05 06:07:59;;;;;;;;;;;;;;;;;;5062820;28;19920;-58
2023/06/05 06:10:26;;;;;;;;;;;;;;;;;;5055924;28;20322;-61
2023/06/05 06:12:53;;;;;;;;;;;;;;;;;;5068413;28;19920;-59
2023/06/05 06:15:19;;;;;;;;;;;;;;;;;;5060002;28;19935;-58
2023/06/05 06:17:45;;;;;;;;;;;;;;;;;;5051704;28;19913;-58
2023/06/05 06:20:12;;;;;;;;;;;;;;;;;;5068761;28;19912;-57
2023/06/05 06:22:38;;;;;;;;;;;;;;;;;;5064938;28;20336;-56
2023/06/05 06:25:04;;;;;;;;;;;;;;;;;;5066806;28;20233;-58
2023/06/05 06:27:30;;;;;;;;;;;;;;;;;;5051124;28;20332;-57
2023/06/05 06:29:56;;;;;;;;;;;;;;;;;;5066503;28;20597;-57
2023/06/05 06:32:23;;;;;;;;;;;;;;;;;;5067529;28;19916;-57
2023/06/05 06:34:49;;;;;;;;;;;;;;;;;;5062779;28;19924;-57
2023/06/05 06:37:15;;;;;;;;;;;;;;;;;;5061725;28;19956;-57
2023/06/05 06:39:41;;;;;;;;;;;;;;;;;;5062705;28;19948;-57
2023/06/05 06:42:09;;;;;;;;;;;;;;;;;;5064123;28;20404;-57
2023/06/05 06:44:35;;;;;;;;;;;;;;;;;;5060867;28;19919;-57
2023/06/05 06:47:01;;;;;;;;;;;;;;;;;;5056290;28;19924;-58
2023/06/05 06:49:27;;;;;;;;;;;;;;;;;;5064268;28;20341;-58
2023/06/05 06:51:53;;;;;;;;;;;;;;;;;;5069328;28;19993;-57
2023/06/05 06:54:19;;;;;;;;;;;;;;;;;;5062708;28;19916;-58
2023/06/05 06:56:45;;;;;;;;;;;;;;;;;;5062488;28;19917;-57
2023/06/05 06:59:12;;;;;;;;;;;;;;;;;;5067170;28;19968;-58
2023/06/05 07:01:40;;;;;;;;;;;;;;;;;;5065818;28;19978;-57
2023/06/05 07:04:06;;;;;;;;;;;;;;;;;;5067643;28;19913;-57
2023/06/05 07:06:33;;;;;;;;;;;;;;;;;;5069133;28;20043;-57
2023/06/05 07:08:59;;;;;;;;;;;;;;;;;;5066358;28;20461;-58
2023/06/05 07:11:26;;;;;;;;;;;;;;;;;;5059212;28;19917;-57
2023/06/05 07:13:54;;;;;;;;;;;;;;;;;;5065894;28;19912;-58
2023/06/05 07:16:20;;;;;;;;;;;;;;;;;;5076687;28;19920;-58
2023/06/05 07:18:46;;;;;;;;;;;;;;;;;;5047945;28;19919;-58
2023/06/05 07:21:12;;;;;;;;;;;;;;;;;;5069485;28;19924;-57
2023/06/05 07:26:24;;;;;;;;;;;;;;;;;;5056606;22;20270;-90
2023/06/05 07:28:50;;;;;;;;;;;;;;;;;;5261527;23;20368;-78
2023/06/05 07:31:17;;;;;;;;;;;;;;;;;;5037135;28;19953;-79
2023/06/05 07:33:43;;;;;;;;;;;;;;;;;;5044208;28;19913;-78
2023/06/05 07:36:10;;;;;;;;;;;;;;;;;;5055071;28;20031;-79
2023/06/05 07:38:36;;;;;;;;;;;;;;;;;;5037173;28;19917;-77
2023/06/05 07:41:02;;;;;;;;;;;;;;;;;;5040159;28;19909;-77
2023/06/05 07:48:32;;;;;;;;;;;;;;;;;;5001894;28;19932;-57
2023/06/05 07:50:58;;;;;;;;;;;;;;;;;;5007805;28;19952;-57
2023/06/05 07:53:24;;;;;;;;;;;;;;;;;;5009520;28;19979;-57
2023/06/05 07:55:51;;;;;;;;;;;;;;;;;;5007881;28;19956;-57
2023/06/05 07:58:18;;;;;;;;;;;;;;;;;;5009403;28;20311;-57
2023/06/05 08:00:47;;;;;;;;;;;;;;;;;;5005649;28;19950;-56
2023/06/05 08:03:16;;;;;;;;;;;;;;;;;;5000625;28;19931;-56
2023/06/05 08:10:56;;;;;;;;;;;;;;;;;;5006031;28;19947;-56
2023/06/05 08:13:22;;;;;;;;;;;;;;;;;;5022423;28;20408;-56
2023/06/05 08:15:48;;;;;;;;;;;;;;;;;;5023114;28;19921;-56
2023/06/05 08:18:14;;;;;;;;;;;;;;;;;;5026453;28;19944;-57
2023/06/05 08:20:40;;;;;;;;;;;;;;;;;;5027795;28;19952;-54
2023/06/05 08:25:40;;;;;;;;;;;;;;;;;;5024272;28;19929;-79
2023/06/05 08:28:06;;;;;;;;;;;;;;;;;;5029614;28;20321;-79
2023/06/05 08:30:32;;;;;;;;;;;;;;;;;;5033359;28;19901;-79
2023/06/05 08:32:58;;;;;;;;;;;;;;;;;;5034217;28;19936;-78
2023/06/05 08:35:24;;;;;;;;;;;;;;;;;;5030843;28;19913;-78
2023/06/05 08:37:50;;;;;;;;;;;;;;;;;;5023576;23;19984;-52
2023/06/05 08:40:18;;;;;;;;;;;;;;;;;;5003218;28;19922;-52
2023/06/05 08:42:44;;;;;;;;;;;;;;;;;;5020547;28;20016;-52
2023/06/05 08:45:10;;;;;;;;;;;;;;;;;;5026216;28;20078;-51
2023/06/05 08:47:36;;;;;;;;;;;;;;;;;;5026336;28;20443;-51
2023/06/05 08:50:03;;;;;;;;;;;;;;;;;;5026928;28;20103;-51
2023/06/05 08:52:29;;;;;;;;;;;;;;;;;;5026575;28;20039;-52
2023/06/05 08:54:55;;;;;;;;;;;;;;;;;;5031064;28;19971;-52
2023/06/05 08:57:21;;;;;;;;;;;;;;;;;;5031063;28;19944;-52
2023/06/05 08:59:47;;;;;;;;;;;;;;;;;;5028615;28;19917;-52
2023/06/05 09:02:13;;;;;;;;;;;;;;;;;;5031824;28;19953;-52
2023/06/05 09:04:39;;;;;;;;;;;;;;;;;;5027570;28;19932;-53
2023/06/05 09:07:06;;;;;;;;;;;;;;;;;;5028588;28;19952;-53
2023/06/05 09:09:33;;;;;;;;;;;;;;;;;;5028516;28;20529;-53
2023/06/05 09:11:59;;;;;;;;;;;;;;;;;;5028532;28;20245;-53
2023/06/05 09:14:25;;;;;;;;;;;;;;;;;;5027022;28;19956;-53
2023/06/05 09:16:51;;;;;;;;;;;;;;;;;;5030450;28;19917;-53
2023/06/05 09:19:17;;;;;;;;;;;;;;;;;;5025777;28;20469;-53
2023/06/05 09:21:44;;;;;;;;;;;;;;;;;;5029741;28;19919;-53
2023/06/05 09:24:11;;;;;;;;;;;;;;;;;;5032081;28;19917;-52
2023/06/05 09:26:37;;;;;;;;;;;;;;;;;;5029735;28;19917;-52
2023/06/05 09:29:04;;;;;;;;;;;;;;;;;;5030975;28;19913;-52
2023/06/05 09:31:30;;;;;;;;;;;;;;;;;;5028118;28;20295;-52
2023/06/05 09:33:56;;;;;;;;;;;;;;;;;;5024116;28;20316;-52
2023/06/05 09:36:22;;;;;;;;;;;;;;;;;;5039878;28;19937;-52
2023/06/05 09:38:50;;;;;;;;;;;;;;;;;;5050553;28;19932;-53
2023/06/05 09:41:18;;;;;;;;;;;;;;;;;;5049733;28;19908;-51
2023/06/05 09:43:45;;;;;;;;;;;;;;;;;;5045798;28;20004;-53
2023/06/05 09:46:11;;;;;;;;;;;;;;;;;;5038017;28;20394;-52
2023/06/05 09:48:37;;;;;;;;;;;;;;;;;;5051621;28;19913;-56
2023/06/05 09:51:03;;;;;;;;;;;;;;;;;;5049635;28;20304;-54
2023/06/05 09:53:29;;;;;;;;;;;;;;;;;;5049824;28;19993;-54
2023/06/05 09:55:55;;;;;;;;;;;;;;;;;;5049295;28;19983;-54
2023/06/05 09:58:21;;;;;;;;;;;;;;;;;;5044096;28;19913;-56
2023/06/05 10:00:47;;;;;;;;;;;;;;;;;;5030004;28;20005;-54
2023/06/05 10:03:13;;;;;;;;;;;;;;;;;;5031660;28;19917;-54
2023/06/05 10:05:39;;;;;;;;;;;;;;;;;;5049873;28;19913;-54
2023/06/05 10:08:05;;;;;;;;;;;;;;;;;;5049785;28;20398;-53
2023/06/05 10:10:31;;;;;;;;;;;;;;;;;;5048559;28;19954;-56
2023/06/05 10:12:57;;;;;;;;;;;;;;;;;;5049700;28;20006;-53
2023/06/05 10:15:23;;;;;;;;;;;;;;;;;;5050663;28;20038;-54
2023/06/05 10:17:50;;;;;;;;;;;;;;;;;;5050539;28;19948;-53
2023/06/05 10:20:16;;;;;;;;;;;;;;;;;;5049838;28;19956;-54
2023/06/05 10:22:42;;;;;;;;;;;;;;;;;;5049952;28;20017;-54
2023/06/05 10:25:09;;;;;;;;;;;;;;;;;;5048140;28;19913;-53
2023/06/05 10:27:35;;;;;;;;;;;;;;;;;;5048673;28;19916;-54
2023/06/05 10:30:01;;;;;;;;;;;;;;;;;;5049462;28;19942;-53
2023/06/05 10:32:28;;;;;;;;;;;;;;;;;;5050381;28;20240;-54
2023/06/05 10:34:54;;;;;;;;;;;;;;;;;;5050320;28;20043;-54
2023/06/05 10:37:21;;;;;;;;;;;;;;;;;;5029150;28;20273;-52
2023/06/05 10:39:47;;;;;;;;;;;;;;;;;;5029115;28;19909;-50
2023/06/05 10:42:13;;;;;;;;;;;;;;;;;;5028966;28;20299;-51
2023/06/05 10:44:40;;;;;;;;;;;;;;;;;;5029501;28;19953;-52
2023/06/05 10:47:06;;;;;;;;;;;;;;;;;;5029706;28;20357;-51
2023/06/05 10:49:32;;;;;;;;;;;;;;;;;;5029992;28;20483;-51
2023/06/05 10:52:00;;;;;;;;;;;;;;;;;;5029498;28;20316;-51
2023/06/05 10:54:26;;;;;;;;;;;;;;;;;;5029714;28;20283;-51
2023/06/05 10:56:53;;;;;;;;;;;;;;;;;;5028253;28;19971;-51
2023/06/05 10:59:20;;;;;;;;;;;;;;;;;;5033875;28;19947;-51
2023/06/05 11:01:46;;;;;;;;;;;;;;;;;;5024974;28;19913;-51
2023/06/05 11:04:12;;;;;;;;;;;;;;;;;;5012636;28;19921;-52
2023/06/05 11:06:39;;;;;;;;;;;;;;;;;;5029025;28;19943;-51
2023/06/05 11:09:05;;;;;;;;;;;;;;;;;;5029128;28;19932;-52
2023/06/05 11:11:31;;;;;;;;;;;;;;;;;;5027717;28;20418;-51
2023/06/05 11:13:57;;;;;;;;;;;;;;;;;;5028387;28;19915;-51
2023/06/05 11:16:23;;;;;;;;;;;;;;;;;;5024917;28;20379;-51
2023/06/05 11:18:49;;;;;;;;;;;;;;;;;;5028720;28;19960;-51
2023/06/05 11:21:15;;;;;;;;;;;;;;;;;;5028376;28;19970;-52
2023/06/05 11:23:41;;;;;;;;;;;;;;;;;;5029350;28;19999;-52
2023/06/05 11:26:07;;;;;;;;;;;;;;;;;;5027881;28;20007;-52
2023/06/05 11:28:33;;;;;;;;;;;;;;;;;;5029143;28;20024;-52
2023/06/05 11:31:00;;;;;;;;;;;;;;;;;;5021826;28;20016;-51
2023/06/05 11:33:26;;;;;;;;;;;;;;;;;;5028007;28;19913;-52
2023/06/05 11:35:52;;;;;;;;;;;;;;;;;;5026388;28;20033;-52
2023/06/05 11:38:18;;;;;;;;;;;;;;;;;;5027546;28;19964;-53
2023/06/05 11:40:44;;;;;;;;;;;;;;;;;;5027325;28;19938;-52
2023/06/05 11:43:10;;;;;;;;;;;;;;;;;;5028521;28;19952;-52
2023/06/05 11:45:36;;;;;;;;;;;;;;;;;;5028470;28;19948;-52
2023/06/05 11:48:02;;;;;;;;;;;;;;;;;;5029170;28;19924;-52
2023/06/05 11:50:30;;;;;;;;;;;;;;;;;;5028038;28;20049;-53
2023/06/05 11:52:56;;;;;;;;;;;;;;;;;;5027769;28;19920;-52
2023/06/05 11:55:32;;;;;;;;;;;;;;;;;;5028113;28;19948;-53
2023/06/05 11:57:58;;;;;;;;;;;;;;;;;;5028135;28;19932;-53
2023/06/05 12:00:24;;;;;;;;;;;;;;;;;;5028563;28;19952;-55
2023/06/05 12:02:51;;;;;;;;;;;;;;;;;;5028988;28;20376;-55
2023/06/05 12:05:17;;;;;;;;;;;;;;;;;;5028507;28;19924;-53
2023/06/05 12:07:43;;;;;;;;;;;;;;;;;;5028095;28;19957;-53
2023/06/05 12:10:10;;;;;;;;;;;;;;;;;;5025423;28;19968;-53
2023/06/05 12:12:36;;;;;;;;;;;;;;;;;;5028436;28;19917;-54
2023/06/05 12:15:02;;;;;;;;;;;;;;;;;;5028631;28;19917;-54
2023/06/05 12:17:28;;;;;;;;;;;;;;;;;;5028681;28;19909;-53
2023/06/05 12:19:54;;;;;;;;;;;;;;;;;;5028417;28;20424;-52
2023/06/05 12:22:20;;;;;;;;;;;;;;;;;;5028800;28;20391;-53
2023/06/05 12:24:46;;;;;;;;;;;;;;;;;;5026233;28;19932;-52
2023/06/05 12:27:13;;;;;;;;;;;;;;;;;;5026863;28;19917;-52
2023/06/05 12:29:40;;;;;;;;;;;;;;;;;;5028317;28;19913;-53
2023/06/05 12:32:06;;;;;;;;;;;;;;;;;;5027575;28;20320;-53
2023/06/05 12:34:33;;;;;;;;;;;;;;;;;;5029518;28;20017;-53
2023/06/05 12:36:59;;;;;;;;;;;;;;;;;;5028415;28;19928;-52
2023/06/05 12:39:25;;;;;;;;;;;;;;;;;;5027848;28;19937;-52
2023/06/05 12:41:51;;;;;;;;;;;;;;;;;;5026210;28;19917;-52
2023/06/05 12:44:17;;;;;;;;;;;;;;;;;;5027569;28;19913;-52
2023/06/05 12:46:44;;;;;;;;;;;;;;;;;;5027868;28;19956;-53
2023/06/05 12:49:11;;;;;;;;;;;;;;;;;;5028654;28;19913;-53
2023/06/05 12:51:37;;;;;;;;;;;;;;;;;;5027698;28;20292;-53
2023/06/05 12:54:03;;;;;;;;;;;;;;;;;;5025662;28;19956;-52
2023/06/05 12:56:29;;;;;;;;;;;;;;;;;;5025922;28;19952;-53
2023/06/05 12:58:55;;;;;;;;;;;;;;;;;;5028090;28;19913;-53
2023/06/05 13:01:21;;;;;;;;;;;;;;;;;;5027607;28;19944;-53
2023/06/05 13:03:47;;;;;;;;;;;;;;;;;;5027694;28;20317;-53
2023/06/05 13:06:13;;;;;;;;;;;;;;;;;;5028209;28;20384;-53
2023/06/05 13:08:39;;;;;;;;;;;;;;;;;;5028569;28;19949;-52
2023/06/05 13:11:05;;;;;;;;;;;;;;;;;;5027057;28;19997;-53
2023/06/05 13:13:32;;;;;;;;;;;;;;;;;;5025312;28;20059;-54
2023/06/05 13:15:58;;;;;;;;;;;;;;;;;;5027815;28;19913;-53
2023/06/05 13:18:24;;;;;;;;;;;;;;;;;;5027764;28;19917;-53
2023/06/05 13:20:50;;;;;;;;;;;;;;;;;;5026828;28;20333;-54
2023/06/05 13:23:17;;;;;;;;;;;;;;;;;;5023077;28;19957;-53
2023/06/05 13:25:43;;;;;;;;;;;;;;;;;;5025211;28;20391;-53
2023/06/05 13:28:09;;;;;;;;;;;;;;;;;;5027241;28;20288;-53
2023/06/05 13:30:35;;;;;;;;;;;;;;;;;;5026865;28;19956;-53
2023/06/05 13:33:01;;;;;;;;;;;;;;;;;;5012605;28;20450;-54
2023/06/05 13:35:27;;;;;;;;;;;;;;;;;;5018659;28;19924;-53
2023/06/05 13:37:53;;;;;;;;;;;;;;;;;;5019304;28;20369;-54
2023/06/05 13:40:19;;;;;;;;;;;;;;;;;;5028640;28;19948;-52
2023/06/05 13:42:45;;;;;;;;;;;;;;;;;;5031775;28;20264;-52
2023/06/05 13:45:11;;;;;;;;;;;;;;;;;;5026534;28;19978;-52
2023/06/05 13:47:37;;;;;;;;;;;;;;;;;;5027273;28;20004;-52
2023/06/05 13:50:03;;;;;;;;;;;;;;;;;;5025935;28;19980;-52
2023/06/05 13:52:29;;;;;;;;;;;;;;;;;;5027743;28;19917;-51
2023/06/05 13:54:55;;;;;;;;;;;;;;;;;;5024014;28;20391;-51
2023/06/05 13:57:21;;;;;;;;;;;;;;;;;;5012440;28;20060;-52
2023/06/05 13:59:47;;;;;;;;;;;;;;;;;;5030385;28;19924;-51
2023/06/05 14:02:13;;;;;;;;;;;;;;;;;;5019988;28;20280;-52
2023/06/05 14:04:39;;;;;;;;;;;;;;;;;;5024485;28;20372;-53
2023/06/05 14:07:05;;;;;;;;;;;;;;;;;;5024392;28;19921;-52
2023/06/05 14:09:31;;;;;;;;;;;;;;;;;;5024609;28;19962;-52
2023/06/05 14:11:58;;;;;;;;;;;;;;;;;;5025188;28;19921;-56
2023/06/05 14:14:24;;;;;;;;;;;;;;;;;;5023630;28;19925;-52
2023/06/05 14:16:50;;;;;;;;;;;;;;;;;;5019928;28;20417;-52
2023/06/05 14:19:16;;;;;;;;;;;;;;;;;;5023622;28;20363;-52
2023/06/05 14:21:42;;;;;;;;;;;;;;;;;;4996833;28;19917;-52
2023/06/05 14:24:08;;;;;;;;;;;;;;;;;;5020854;28;19913;-53
2023/06/05 14:26:34;;;;;;;;;;;;;;;;;;5027588;28;19968;-53
2023/06/05 14:29:00;;;;;;;;;;;;;;;;;;5027203;28;20002;-53
2023/06/05 14:31:28;;;;;;;;;;;;;;;;;;5026535;28;19917;-52
2023/06/05 14:33:54;;;;;;;;;;;;;;;;;;5026990;28;19983;-52
2023/06/05 14:36:20;;;;;;;;;;;;;;;;;;5026160;28;20311;-52
2023/06/05 14:38:45;;;;;;;;;;;;;;;;;;5047971;28;19963;-53
2023/06/05 14:41:14;;;;;;;;;;;;;;;;;;5041127;28;20036;-52
2023/06/05 14:43:40;;;;;;;;;;;;;;;;;;5043457;28;19917;-52
2023/06/05 14:46:06;;;;;;;;;;;;;;;;;;5046929;28;20512;-52
2023/06/05 14:48:32;;;;;;;;;;;;;;;;;;5048084;28;19979;-52
2023/06/05 14:50:58;;;;;;;;;;;;;;;;;;5038216;28;19917;-52
2023/06/05 14:53:25;;;;;;;;;;;;;;;;;;5046347;28;19999;-52
2023/06/05 14:55:50;;;;;;;;;;;;;;;;;;5044558;28;19920;-52
2023/06/05 14:58:17;;;;;;;;;;;;;;;;;;5040612;28;19972;-52
2023/06/05 15:00:43;;;;;;;;;;;;;;;;;;5042200;28;19952;-51
2023/06/05 15:03:09;;;;;;;;;;;;;;;;;;5043891;28;19924;-51
2023/06/05 15:05:35;;;;;;;;;;;;;;;;;;5043216;28;20361;-52
2023/06/05 15:08:01;;;;;;;;;;;;;;;;;;5041682;28;19967;-52
2023/06/05 15:10:27;;;;;;;;;;;;;;;;;;5041244;28;20414;-52
2023/06/05 15:12:57;;;;;;;;;;;;;;;;;;5046579;28;19964;-52
2023/06/05 15:15:23;;;;;;;;;;;;;;;;;;5036907;28;20416;-51
2023/06/05 15:17:52;;;;;;;;;;;;;;;;;;5041152;28;20513;-52
2023/06/05 15:20:18;;;;;;;;;;;;;;;;;;5041789;28;19917;-51
2023/06/05 15:22:44;;;;;;;;;;;;;;;;;;5015447;28;19993;-50
2023/06/05 15:25:10;;;;;;;;;;;;;;;;;;5041937;28;20310;-52
2023/06/05 15:27:36;;;;;;;;;;;;;;;;;;5043828;28;20013;-51
2023/06/05 15:30:02;;;;;;;;;;;;;;;;;;5039178;28;20307;-50
2023/06/05 15:32:28;;;;;;;;;;;;;;;;;;5037597;28;19916;-51
2023/06/05 15:34:54;;;;;;;;;;;;;;;;;;5045299;28;19948;-51
2023/06/05 15:37:20;;;;;;;;;;;;;;;;;;5042696;28;20015;-52
2023/06/05 15:39:46;;;;;;;;;;;;;;;;;;5044305;28;20341;-53
2023/06/05 15:42:12;;;;;;;;;;;;;;;;;;5033396;28;19931;-53
2023/06/05 15:44:38;;;;;;;;;;;;;;;;;;5042765;28;20315;-51
2023/06/05 15:47:07;;;;;;;;;;;;;;;;;;5016365;28;21332;-52
2023/06/05 15:49:33;;;;;;;;;;;;;;;;;;5036341;28;19932;-52
2023/06/05 15:51:59;;;;;;;;;;;;;;;;;;5034052;28;20295;-54
2023/06/05 15:54:25;;;;;;;;;;;;;;;;;;5038460;28;20670;-54
2023/06/05 15:56:52;;;;;;;;;;;;;;;;;;5038829;28;19984;-54
2023/06/05 15:59:21;;;;;;;;;;;;;;;;;;5040525;28;20663;-54
2023/06/05 16:01:48;;;;;;;;;;;;;;;;;;5035436;28;19969;-54
2023/06/05 16:04:14;;;;;;;;;;;;;;;;;;5043548;28;19917;-54
2023/06/05 16:06:40;;;;;;;;;;;;;;;;;;5041758;28;19974;-54
2023/06/05 16:09:06;;;;;;;;;;;;;;;;;;5045150;28;19917;-54
2023/06/05 16:11:33;;;;;;;;;;;;;;;;;;5036384;28;19975;-55
2023/06/05 16:13:59;;;;;;;;;;;;;;;;;;5043419;28;20464;-55
2023/06/05 16:16:25;;;;;;;;;;;;;;;;;;5042279;28;19921;-54
2023/06/05 16:18:52;;;;;;;;;;;;;;;;;;5045189;28;19917;-53
2023/06/05 16:21:18;;;;;;;;;;;;;;;;;;5040740;28;20232;-53
2023/06/05 16:23:43;;;;;;;;;;;;;;;;;;5041313;28;19921;-54
2023/06/05 16:26:09;;;;;;;;;;;;;;;;;;5039364;28;19971;-54
2023/06/05 16:28:36;;;;;;;;;;;;;;;;;;5037884;28;20426;-54
2023/06/05 16:31:02;;;;;;;;;;;;;;;;;;5036648;28;19917;-55
2023/06/05 16:33:28;;;;;;;;;;;;;;;;;;5025678;28;19952;-55
2023/06/05 16:35:54;;;;;;;;;;;;;;;;;;5042250;28;20025;-55
2023/06/05 16:38:21;;;;;;;;;;;;;;;;;;5038150;28;20264;-54
2023/06/05 16:40:48;;;;;;;;;;;;;;;;;;5036558;28;20443;-53
2023/06/05 16:43:15;;;;;;;;;;;;;;;;;;5036743;28;19920;-54
2023/06/05 16:45:44;;;;;;;;;;;;;;;;;;5038305;28;19949;-55
2023/06/05 16:48:11;;;;;;;;;;;;;;;;;;5043925;28;20337;-56
2023/06/05 16:50:37;;;;;;;;;;;;;;;;;;5042519;28;19916;-55
2023/06/05 16:53:03;;;;;;;;;;;;;;;;;;5041268;28;20291;-55
2023/06/05 16:55:29;;;;;;;;;;;;;;;;;;5018241;28;19936;-54